Time;durP1;ratioP1;P1;durP2;ratioP2;P2;SDS_P1;SDS_P2;PMS_P1;PMS_P2;Temp;Humidity;BMP_temperature;BMP_pressure;BME280_temperature;BME280_humidity;BME280_pressure;Samples;Min_cycle;Max_cycle;Signal;HPM_P1;HPM_P2
2023/08/08 00:01:36;;;;;;;3.35;2.35;;;;;;;10.55;100.00;98373.50;4173107;28;20556;-72
2023/08/08 00:03:36;;;;;;;3.67;2.20;;;;;;;10.56;100.00;98364.81;4173674;28;20132;-72
2023/08/08 00:05:37;;;;;;;6.97;2.22;;;;;;;10.52;100.00;98360.44;4173319;28;20427;-72
2023/08/08 00:07:37;;;;;;;3.75;2.55;;;;;;;10.64;100.00;98369.25;4173679;28;20041;-72
2023/08/08 00:09:37;;;;;;;4.13;2.05;;;;;;;10.60;100.00;98367.63;4173353;28;20090;-72
2023/08/08 00:11:38;;;;;;;3.03;2.10;;;;;;;10.59;100.00;98358.56;4173526;28;20068;-72
2023/08/08 00:13:38;;;;;;;6.78;2.33;;;;;;;10.67;100.00;98360.22;4172535;28;20052;-72
2023/08/08 00:15:39;;;;;;;3.67;2.42;;;;;;;10.65;100.00;98359.78;4172847;28;20060;-72
2023/08/08 00:17:39;;;;;;;5.53;2.80;;;;;;;10.65;100.00;98359.78;4173900;28;20045;-72
2023/08/08 00:19:40;;;;;;;6.32;2.30;;;;;;;10.60;100.00;98351.03;4173205;28;20485;-72
2023/08/08 00:21:40;;;;;;;2.78;2.00;;;;;;;10.61;100.00;98350.66;4172524;28;20041;-72
2023/08/08 00:23:41;;;;;;;3.78;2.40;;;;;;;10.62;100.00;98349.47;4173219;28;20045;-72
2023/08/08 00:25:41;;;;;;;2.75;2.08;;;;;;;10.64;100.00;98349.88;4173036;28;20175;-72
2023/08/08 00:27:43;;;;;;;3.53;1.98;;;;;;;10.63;100.00;98348.28;4172947;28;20045;-72
2023/08/08 00:29:45;;;;;;;3.53;2.28;;;;;;;10.64;100.00;98349.09;4173041;28;20272;-72
2023/08/08 00:31:45;;;;;;;4.50;2.20;;;;;;;10.61;100.00;98347.88;4173593;28;20504;-72
2023/08/08 00:33:46;;;;;;;3.25;2.13;;;;;;;10.63;100.00;98347.50;4172293;28;20044;-72
2023/08/08 00:35:46;;;;;;;4.45;2.13;;;;;;;10.64;100.00;98346.31;4172608;28;20253;-72
2023/08/08 00:37:46;;;;;;;3.42;1.90;;;;;;;10.64;100.00;98344.34;4173575;28;20053;-72
2023/08/08 00:39:47;;;;;;;4.00;2.47;;;;;;;10.75;100.00;98338.09;4172468;28;20403;-72
2023/08/08 00:41:47;;;;;;;3.35;2.28;;;;;;;10.75;100.00;98340.88;4173049;28;20045;-72
2023/08/08 00:43:47;;;;;;;3.15;2.47;;;;;;;10.75;100.00;98338.91;4172516;28;20454;-72
2023/08/08 00:45:48;;;;;;;2.83;2.38;;;;;;;10.69;100.00;98338.47;4172575;28;20494;-72
2023/08/08 00:47:48;;;;;;;4.43;2.42;;;;;;;10.66;100.00;98342.00;4173089;28;20053;-72
2023/08/08 00:49:48;;;;;;;5.95;2.30;;;;;;;10.63;100.00;98341.97;4172891;28;20057;-71
2023/08/08 00:51:49;;;;;;;3.85;2.50;;;;;;;10.63;100.00;98347.50;4173124;28;20544;-72
2023/08/08 00:53:50;;;;;;;4.95;2.30;;;;;;;10.61;100.00;98347.09;4171999;28;20045;-72
2023/08/08 00:55:50;;;;;;;3.20;2.53;;;;;;;10.58;100.00;98353.38;4172351;28;20384;-72
2023/08/08 00:57:51;;;;;;;5.75;2.53;;;;;;;10.56;100.00;98347.44;4172926;28;20048;-72
2023/08/08 00:59:51;;;;;;;6.45;3.00;;;;;;;10.51;100.00;98348.59;4172687;28;20056;-72
2023/08/08 01:01:52;;;;;;;3.58;2.17;;;;;;;10.52;100.00;98352.16;4172886;28;20473;-72
2023/08/08 01:03:53;;;;;;;3.47;2.53;;;;;;;10.50;100.00;98349.75;4172027;28;20045;-72
2023/08/08 01:06:16;;;;;;;4.22;2.55;;;;;;;10.49;100.00;98342.63;4172613;28;20076;-72
2023/08/08 01:08:22;;;;;;;4.75;2.45;;;;;;;10.52;100.00;98341.09;4169268;28;20124;-72
2023/08/08 01:10:25;;;;;;;3.35;2.47;;;;;;;10.49;100.00;98350.13;4172648;28;20041;-72
2023/08/08 01:12:26;;;;;;;;;;;;;;;10.47;100.00;98350.50;4172257;28;20103;-72
2023/08/08 01:14:29;;;;;;;6.78;2.90;;;;;;;10.43;100.00;98338.63;4172172;28;20783;-72
2023/08/08 01:16:29;;;;;;;5.22;2.90;;;;;;;10.42;100.00;98337.00;4172322;28;20049;-72
2023/08/08 01:18:32;;;;;;;4.25;2.40;;;;;;;10.39;100.00;98340.56;4172511;28;20116;-72
2023/08/08 01:20:33;;;;;;;;;;;;;;;10.41;100.00;98333.47;4171914;28;20149;-72
2023/08/08 01:22:39;;;;;;;3.45;2.33;;;;;;;10.40;100.00;98333.84;4171957;28;19921;-72
2023/08/08 01:24:41;;;;;;;4.93;2.60;;;;;;;10.46;100.00;98332.31;4172558;28;20033;-72
2023/08/08 01:26:41;;;;;;;3.13;2.28;;;;;;;10.44;100.00;98328.38;4170461;28;20132;-72
2023/08/08 01:28:42;;;;;;;5.90;2.63;;;;;;;10.45;100.00;98332.72;4171326;28;20068;-72
2023/08/08 01:30:43;;;;;;;3.95;2.85;;;;;;;10.42;100.00;98320.41;4172672;28;20044;-72
2023/08/08 01:32:43;;;;;;;3.55;2.22;;;;;;;10.41;100.00;98329.91;4171673;28;20098;-72
2023/08/08 01:34:44;;;;;;;5.65;2.60;;;;;;;10.45;100.00;98318.88;4172180;28;20091;-72
2023/08/08 01:36:52;;;;;;;5.57;2.88;;;;;;;10.43;100.00;98316.50;4171733;28;20132;-72
2023/08/08 01:38:56;;;;;;;5.50;2.38;;;;;;;10.44;100.00;98318.09;4172124;28;20049;-72
2023/08/08 01:40:57;;;;;;;4.68;2.33;;;;;;;10.45;100.00;98319.69;4171432;28;20439;-72
2023/08/08 01:42:58;;;;;;;3.33;1.95;;;;;;;10.45;100.00;98319.69;4171715;28;20041;-72
2023/08/08 01:44:59;;;;;;;4.15;2.05;;;;;;;10.39;100.00;98310.13;4170945;28;20045;-72
2023/08/08 01:46:59;;;;;;;3.28;2.38;;;;;;;10.40;100.00;98314.47;4171605;28;20115;-72
2023/08/08 01:49:00;;;;;;;3.90;2.60;;;;;;;10.44;100.00;98318.09;4172505;28;20472;-72
2023/08/08 01:51:00;;;;;;;7.10;2.65;;;;;;;10.43;100.00;98315.72;4171999;28;20169;-72
2023/08/08 01:53:01;;;;;;;3.53;2.70;;;;;;;10.40;100.00;98303.41;4170669;28;20106;-72
2023/08/08 01:55:01;;;;;;;3.65;2.60;;;;;;;10.44;100.00;98307.03;4171613;28;20048;-72
2023/08/08 01:57:02;;;;;;;7.25;3.00;;;;;;;10.49;100.00;98297.56;4170893;28;20492;-72
2023/08/08 01:59:02;;;;;;;3.72;2.80;;;;;;;10.50;100.00;98302.72;4171745;28;20056;-72
2023/08/08 02:01:02;;;;;;;3.72;2.28;;;;;;;10.56;100.00;98308.69;4171422;28;20051;-72
2023/08/08 02:03:03;;;;;;;6.00;2.85;;;;;;;10.52;100.00;98308.69;4172503;28;20052;-72
2023/08/08 02:05:04;;;;;;;4.60;2.75;;;;;;;10.51;100.00;98304.34;4172099;28;20132;-72
2023/08/08 02:07:04;;;;;;;5.15;2.67;;;;;;;10.50;100.00;98301.91;4171742;28;20094;-72
2023/08/08 02:09:05;;;;;;;5.07;2.92;;;;;;;10.47;100.00;98306.25;4172018;28;20067;-72
2023/08/08 02:11:06;;;;;;;5.70;2.70;;;;;;;10.43;100.00;98297.16;4175464;28;20122;-72
2023/08/08 02:13:06;;;;;;;6.05;2.55;;;;;;;10.40;100.00;98293.16;4174542;28;20112;-72
2023/08/08 02:15:07;;;;;;;4.45;2.72;;;;;;;10.35;100.00;98295.50;4175431;28;20130;-72
2023/08/08 02:17:07;;;;;;;4.47;2.70;;;;;;;10.35;100.00;98287.19;4175189;28;20048;-72
2023/08/08 02:19:07;;;;;;;4.05;2.80;;;;;;;10.39;100.00;98288.81;4174675;28;20178;-72
2023/08/08 02:21:08;;;;;;;7.00;2.83;;;;;;;10.52;100.00;98281.03;4175159;28;20055;-72
2023/08/08 02:23:08;;;;;;;6.25;3.03;;;;;;;10.59;100.00;98272.78;4173041;28;20044;-72
2023/08/08 02:25:09;;;;;;;5.93;2.55;;;;;;;10.64;100.00;98279.91;4175316;28;20088;-72
2023/08/08 02:27:09;;;;;;;7.03;2.47;;;;;;;10.63;100.00;98273.59;4174434;28;20059;-72
2023/08/08 02:29:09;;;;;;;6.05;2.60;;;;;;;10.62;100.00;98279.50;4174949;28;20088;-72
2023/08/08 02:31:10;;;;;;;5.22;2.22;;;;;;;10.59;100.00;98277.50;4175451;28;20446;-72
2023/08/08 02:33:10;;;;;;;3.60;2.20;;;;;;;10.71;100.00;98274.44;4174600;28;20055;-72
2023/08/08 02:35:11;;;;;;;4.38;2.20;;;;;;;10.75;100.00;98275.25;4175013;28;20052;-72
2023/08/08 02:37:12;;;;;;;4.10;1.88;;;;;;;10.76;100.00;98260.25;4175233;28;20081;-72
2023/08/08 02:39:12;;;;;;;5.55;2.20;;;;;;;10.77;100.00;98263.81;4174403;28;20521;-72
2023/08/08 02:41:12;;;;;;;3.60;1.90;;;;;;;10.78;100.00;98262.63;4174568;28;20492;-72
2023/08/08 02:43:13;;;;;;;2.80;1.83;;;;;;;10.79;100.00;98264.22;4174614;28;20075;-72
2023/08/08 02:45:13;;;;;;;2.85;2.10;;;;;;;10.80;100.00;98268.59;4174460;28;20098;-72
2023/08/08 02:47:13;;;;;;;2.95;1.90;;;;;;;10.80;100.00;98274.13;4174692;28;20049;-72
2023/08/08 02:49:14;;;;;;;4.35;1.88;;;;;;;10.80;100.00;98274.91;4175089;28;20313;-72
2023/08/08 02:51:14;;;;;;;3.20;2.20;;;;;;;10.84;100.00;98283.22;4174463;28;20064;-72
2023/08/08 02:53:14;;;;;;;4.65;1.85;;;;;;;10.86;100.00;98276.16;4173304;28;20546;-72
2023/08/08 02:55:15;;;;;;;5.22;2.47;;;;;;;10.92;100.00;98276.56;4174923;28;20041;-72
2023/08/08 02:57:16;;;;;;;4.03;2.08;;;;;;;10.98;100.00;98275.81;4174645;28;20110;-72
2023/08/08 02:59:16;;;;;;;2.85;2.10;;;;;;;11.03;100.00;98280.22;4174602;28;20455;-72
2023/08/08 03:01:17;;;;;;;3.05;1.95;;;;;;;11.04;100.00;98272.69;4174221;28;20044;-72
2023/08/08 03:03:17;;;;;;;2.95;2.05;;;;;;;11.02;100.00;98261.22;4174332;28;20052;-72
2023/08/08 03:05:17;;;;;;;2.75;1.83;;;;;;;11.01;100.00;98268.75;4174105;28;20162;-72
2023/08/08 03:07:18;;;;;;;3.33;1.92;;;;;;;11.02;100.00;98264.78;4173809;28;20053;-72
2023/08/08 03:09:18;;;;;;;3.65;2.00;;;;;;;11.05;100.00;98255.69;4174685;28;20071;-72
2023/08/08 03:11:18;;;;;;;2.53;1.83;;;;;;;11.05;100.00;98258.47;4174413;28;20060;-72
2023/08/08 03:13:19;;;;;;;3.80;2.10;;;;;;;11.04;100.00;98259.66;4173655;28;20025;-72
2023/08/08 03:15:20;;;;;;;2.35;1.75;;;;;;;11.03;100.00;98266.38;4174955;28;20053;-72
2023/08/08 03:17:20;;;;;;;3.45;1.73;;;;;;;11.08;100.00;98273.50;4175222;28;20041;-72
2023/08/08 03:19:20;;;;;;;2.25;1.83;;;;;;;11.06;100.00;98276.66;4174095;28;20049;-72
2023/08/08 03:21:21;;;;;;;4.55;1.75;;;;;;;11.14;100.00;98283.03;4173595;28;20041;-72
2023/08/08 03:23:23;;;;;;;2.95;1.95;;;;;;;11.13;100.00;98276.72;4173857;28;20041;-72
2023/08/08 03:25:23;;;;;;;4.90;2.10;;;;;;;11.17;100.00;98287.78;4173438;28;20347;-72
2023/08/08 03:27:24;;;;;;;4.03;2.10;;;;;;;11.16;100.00;98284.22;4174394;28;20107;-72
2023/08/08 03:29:24;;;;;;;6.57;1.90;;;;;;;11.16;100.00;98275.91;4173716;28;20061;-72
2023/08/08 03:31:26;;;;;;;3.00;1.98;;;;;;;11.17;100.00;98273.94;4172641;28;20072;-72
2023/08/08 03:33:26;;;;;;;5.00;2.40;;;;;;;11.17;100.00;98280.31;4175077;28;20048;-72
2023/08/08 03:35:27;;;;;;;4.07;2.20;;;;;;;11.20;100.00;98267.66;4174005;28;20136;-72
2023/08/08 03:37:27;;;;;;;5.93;2.63;;;;;;;11.22;100.00;98268.06;4174762;28;20139;-72
2023/08/08 03:39:28;;;;;;;3.63;2.47;;;;;;;11.30;100.00;98277.19;4173316;28;20056;-72
2023/08/08 03:41:28;;;;;;;4.75;2.58;;;;;;;11.30;100.00;98260.56;4171877;28;20044;-72
2023/08/08 03:43:28;;;;;;;3.75;2.88;;;;;;;11.32;100.00;98270.06;4170057;28;20134;-72
2023/08/08 03:45:29;;;;;;;6.43;3.25;;;;;;;11.33;100.00;98265.34;4173862;28;20160;-72
2023/08/08 03:47:29;;;;;;;7.63;3.40;;;;;;;11.33;100.00;98268.09;4170935;28;20416;-72
2023/08/08 03:49:29;;;;;;;3.95;3.00;;;;;;;11.38;100.00;98273.28;4173374;28;20477;-72
2023/08/08 03:51:30;;;;;;;4.20;3.13;;;;;;;11.39;100.00;98267.34;4171317;28;20106;-72
2023/08/08 03:53:30;;;;;;;4.55;3.03;;;;;;;11.40;100.00;98260.63;4171911;28;20081;-72
2023/08/08 03:55:32;;;;;;;3.65;2.80;;;;;;;11.43;100.00;98261.84;4173052;28;20041;-72
2023/08/08 03:57:32;;;;;;;4.35;3.33;;;;;;;11.47;100.00;98263.44;4174400;28;20134;-72
2023/08/08 03:59:32;;;;;;;5.10;2.90;;;;;;;11.49;100.00;98265.81;4173340;28;20041;-72
2023/08/08 04:01:33;;;;;;;6.82;3.17;;;;;;;11.60;100.00;98257.56;4173345;28;20079;-72
2023/08/08 04:03:33;;;;;;;4.35;3.40;;;;;;;11.59;100.00;98264.28;4172692;28;20139;-72
2023/08/08 04:05:33;;;;;;;7.72;3.97;;;;;;;11.60;100.00;98257.56;4171502;28;20099;-72
2023/08/08 04:07:34;;;;;;;4.57;3.17;;;;;;;11.62;100.00;98255.19;4173941;28;20056;-72
2023/08/08 04:09:34;;;;;;;5.13;3.42;;;;;;;11.60;100.00;98250.03;4173569;28;20049;-72
2023/08/08 04:11:35;;;;;;;5.20;3.05;;;;;;;11.63;100.00;98257.56;4169942;28;20489;-72
2023/08/08 04:13:36;;;;;;;4.53;3.15;;;;;;;11.69;100.00;98264.31;4171482;28;20079;-72
2023/08/08 04:15:37;;;;;;;3.67;2.53;;;;;;;11.72;100.00;98262.72;4171517;28;20139;-72
2023/08/08 04:17:37;;;;;;;5.47;2.92;;;;;;;11.72;100.00;98265.50;4173969;28;20080;-72
2023/08/08 04:19:37;;;;;;;10.15;3.50;;;;;;;11.73;100.00;98261.53;4173522;28;20136;-72
2023/08/08 04:21:38;;;;;;;4.70;3.35;;;;;;;11.74;100.00;98265.91;4173990;28;20033;-72
2023/08/08 04:23:38;;;;;;;3.85;3.30;;;;;;;11.76;100.00;98261.56;4172022;28;20162;-72
2023/08/08 04:25:38;;;;;;;4.53;3.42;;;;;;;11.76;100.00;98258.00;4173094;28;20084;-72
2023/08/08 04:27:39;;;;;;;5.70;2.80;;;;;;;11.76;100.00;98253.25;4172618;28;20079;-72
2023/08/08 04:29:39;;;;;;;6.25;2.88;;;;;;;11.81;100.00;98249.31;4172665;28;20662;-72
2023/08/08 04:31:40;;;;;;;3.92;3.00;;;;;;;11.86;100.00;98259.25;4172678;28;20049;-72
2023/08/08 04:33:40;;;;;;;5.68;2.75;;;;;;;11.84;100.00;98248.56;4171344;28;20143;-72
2023/08/08 04:35:40;;;;;;;5.13;3.00;;;;;;;11.87;100.00;98264.41;4172444;28;20202;-72
2023/08/08 04:37:41;;;;;;;4.10;2.97;;;;;;;11.91;100.00;98256.88;4173031;28;20041;-72
2023/08/08 04:39:42;;;;;;;3.45;2.50;;;;;;;11.92;100.00;98257.69;4172355;28;20044;-72
2023/08/08 04:41:42;;;;;;;3.95;2.80;;;;;;;11.94;100.00;98255.31;4172650;28;20044;-72
2023/08/08 04:43:42;;;;;;;3.75;3.03;;;;;;;11.95;100.00;98259.66;4171823;28;20136;-72
2023/08/08 04:45:43;;;;;;;6.00;2.90;;;;;;;11.94;100.00;98253.34;4172133;28;20232;-72
2023/08/08 04:47:43;;;;;;;10.90;3.15;;;;;;;11.95;100.00;98254.13;4172034;28;20072;-72
2023/08/08 04:49:43;;;;;;;5.93;2.78;;;;;;;11.99;100.00;98252.13;4172939;28;20642;-72
2023/08/08 04:51:43;;;;;;;3.13;2.40;;;;;;;12.03;100.00;98256.53;4173098;28;20053;-72
2023/08/08 04:53:44;;;;;;;5.68;2.50;;;;;;;11.97;100.00;98252.53;4172418;28;20059;-72
2023/08/08 04:55:44;;;;;;;3.00;2.33;;;;;;;11.99;100.00;98255.69;4171520;28;20048;-72
2023/08/08 04:57:44;;;;;;;4.95;2.40;;;;;;;11.97;100.00;98257.28;4127772;28;20512;-72
2023/08/08 04:59:45;;;;;;;4.05;2.60;;;;;;;11.95;100.00;98251.34;4176850;28;20076;-72
2023/08/08 05:01:45;;;;;;;3.67;2.47;;;;;;;11.95;100.00;98259.66;4172585;28;20124;-72
2023/08/08 05:03:46;;;;;;;4.38;2.33;;;;;;;11.93;100.00;98257.28;4172405;28;20485;-72
2023/08/08 05:05:46;;;;;;;4.13;2.60;;;;;;;12.02;100.00;98262.47;4172355;28;20396;-72
2023/08/08 05:07:46;;;;;;;5.78;2.50;;;;;;;12.02;100.00;98263.25;4171863;28;20408;-72
2023/08/08 05:09:47;;;;;;;4.55;2.30;;;;;;;11.99;100.00;98257.69;4172648;28;20051;-72
2023/08/08 05:11:47;;;;;;;4.03;2.33;;;;;;;12.03;100.00;98266.81;4171900;28;20070;-72
2023/08/08 05:13:47;;;;;;;3.90;2.40;;;;;;;12.07;100.00;98264.84;4171539;28;20096;-72
2023/08/08 05:15:48;;;;;;;4.28;2.40;;;;;;;12.07;100.00;98262.06;4171109;28;20044;-72
2023/08/08 05:17:48;;;;;;;6.82;3.17;;;;;;;12.09;100.00;98262.47;4170697;28;20045;-72
2023/08/08 05:19:48;;;;;;;4.70;2.30;;;;;;;12.08;100.00;98264.47;4171339;28;20068;-72
2023/08/08 05:21:49;;;;;;;3.92;2.40;;;;;;;12.07;100.00;98267.59;4171396;28;20503;-72
2023/08/08 05:23:49;;;;;;;4.50;2.58;;;;;;;12.05;100.00;98272.75;4170108;28;20075;-72
2023/08/08 05:25:49;;;;;;;3.30;2.63;;;;;;;12.11;100.00;98262.09;4171278;28;20061;-72
2023/08/08 05:27:50;;;;;;;3.40;2.50;;;;;;;12.06;100.00;98264.03;4170584;28;20456;-72
2023/08/08 05:29:50;;;;;;;6.20;3.13;;;;;;;12.07;100.00;98262.84;4172353;28;20128;-72
2023/08/08 05:31:50;;;;;;;3.85;2.55;;;;;;;12.07;100.00;98260.06;4171685;28;20057;-72
2023/08/08 05:33:51;;;;;;;3.13;2.17;;;;;;;12.03;100.00;98261.28;4171134;28;20522;-72
2023/08/08 05:35:51;;;;;;;3.78;2.50;;;;;;;12.09;100.00;98259.72;4171369;28;20041;-72
2023/08/08 05:37:51;;;;;;;4.88;2.25;;;;;;;12.07;100.00;98259.28;4171165;28;20072;-72
2023/08/08 05:39:53;;;;;;;4.63;2.10;;;;;;;12.05;100.00;98250.56;4171371;28;20156;-72
2023/08/08 05:41:53;;;;;;;3.17;2.20;;;;;;;12.02;100.00;98248.59;4171707;28;20095;-72
2023/08/08 05:43:53;;;;;;;3.95;2.05;;;;;;;12.03;100.00;98244.63;4172986;28;20443;-72
2023/08/08 05:45:54;;;;;;;3.30;2.05;;;;;;;12.04;100.00;98246.22;4173965;28;20059;-72
2023/08/08 05:47:56;;;;;;;4.20;1.98;;;;;;;12.07;100.00;98253.75;4174642;28;20111;-72
2023/08/08 05:49:56;;;;;;;3.77;2.30;;;;;;;12.09;100.00;98240.31;4175707;28;20084;-72
2023/08/08 05:51:56;;;;;;;3.70;2.75;;;;;;;12.16;100.00;98247.81;4175640;28;20276;-72
2023/08/08 05:53:57;;;;;;;5.10;3.17;;;;;;;12.24;100.00;98241.88;4174936;28;20141;-72
2023/08/08 05:55:57;;;;;;;5.90;2.85;;;;;;;12.43;100.00;98237.94;4175742;28;20485;-72
2023/08/08 05:57:57;;;;;;;3.67;2.70;;;;;;;12.48;100.00;98236.75;4175775;28;20041;-72
2023/08/08 05:59:58;;;;;;;5.22;3.00;;;;;;;12.55;100.00;98233.97;4175387;28;20052;-72
2023/08/08 06:01:58;;;;;;;3.85;2.40;;;;;;;12.57;100.00;98232.38;4175158;28;20045;-73
2023/08/08 06:03:59;;;;;;;3.00;2.63;;;;;;;12.60;100.00;98225.25;4175209;28;20037;-72
2023/08/08 06:06:00;;;;;;;3.75;2.95;;;;;;;12.63;100.00;98230.78;4174667;28;20399;-72
2023/08/08 06:08:00;;;;;;;6.40;2.70;;;;;;;12.63;100.00;98225.25;4175124;28;20052;-72
2023/08/08 06:10:00;;;;;;;4.13;2.47;;;;;;;12.73;100.00;98236.72;4175888;28;20126;-72
2023/08/08 06:12:01;;;;;;;4.60;2.28;;;;;;;12.75;100.00;98226.84;4175721;28;20064;-72
2023/08/08 06:14:01;;;;;;;3.50;2.47;;;;;;;12.79;100.00;98230.38;4174523;28;20171;-72
2023/08/08 06:16:03;;;;;;;3.67;2.40;;;;;;;12.84;100.00;98249.44;4175183;28;20119;-72
2023/08/08 06:18:05;;;;;;;4.90;2.38;;;;;;;12.82;100.00;98240.69;4174220;28;20025;-72
2023/08/08 06:20:06;;;;;;;4.05;2.35;;;;;;;12.81;100.00;98244.66;4174141;28;20075;-72
2023/08/08 06:22:07;;;;;;;5.72;2.40;;;;;;;12.83;100.00;98247.84;4174568;28;20023;-72
2023/08/08 06:24:07;;;;;;;3.72;2.45;;;;;;;12.88;100.00;98250.19;4175091;28;20127;-72
2023/08/08 06:26:09;;;;;;;5.50;2.50;;;;;;;12.87;100.00;98237.50;4190058;28;20113;-72
2023/08/08 06:28:11;;;;;;;4.90;3.08;;;;;;;12.89;100.00;98234.34;4175263;28;20037;-72
2023/08/08 06:30:11;;;;;;;3.65;2.40;;;;;;;12.88;100.00;98230.75;4173828;28;20035;-72
2023/08/08 06:32:12;;;;;;;4.50;2.40;;;;;;;12.88;100.00;98230.75;4174978;28;20041;-72
2023/08/08 06:34:12;;;;;;;5.45;2.28;;;;;;;12.90;100.00;98228.38;4174764;28;20033;-72
2023/08/08 06:36:13;;;;;;;3.33;2.58;;;;;;;13.03;100.00;98220.44;4174931;28;20033;-72
2023/08/08 06:38:13;;;;;;;3.08;2.00;;;;;;;13.13;100.00;98222.38;4175260;28;20357;-72
2023/08/08 06:40:13;;;;;;;5.65;3.28;;;;;;;13.18;100.00;98226.75;4175352;28;20021;-72
2023/08/08 06:42:14;;;;;;;2.45;1.83;;;;;;;13.31;100.00;98222.34;4174643;28;20025;-72
2023/08/08 06:44:14;;;;;;;4.00;2.60;;;;;;;13.32;100.00;98221.19;4174057;28;20020;-72
2023/08/08 06:46:14;;;;;;;2.47;2.10;;;;;;;13.57;100.00;98220.25;4173242;28;20072;-72
2023/08/08 06:48:15;;;;;;;3.95;2.55;;;;;;;13.71;100.00;98222.97;4174248;28;20039;-72
2023/08/08 06:50:15;;;;;;;4.63;2.08;;;;;;;13.83;100.00;98230.09;4174786;28;20052;-72
2023/08/08 06:52:15;;;;;;;3.78;2.30;;;;;;;14.04;100.00;98218.81;4174288;28;20564;-72
2023/08/08 06:54:16;;;;;;;3.45;2.67;;;;;;;14.11;100.00;98223.53;4173341;28;20029;-72
2023/08/08 06:56:16;;;;;;;3.40;2.00;;;;;;;14.15;100.00;98238.22;4173183;28;20025;-72
2023/08/08 06:58:16;;;;;;;3.92;2.38;;;;;;;14.13;100.00;98215.56;4175228;28;20039;-72
2023/08/08 07:00:17;;;;;;;3.15;2.30;;;;;;;14.05;100.00;98225.94;4174055;28;20035;-72
2023/08/08 07:02:19;;;;;;;3.60;2.35;;;;;;;14.00;100.00;98218.06;4174865;28;20470;-72
2023/08/08 07:04:20;;;;;;;3.30;2.25;;;;;;;13.94;100.00;98219.69;4174010;28;20024;-72
2023/08/08 07:06:20;;;;;;;3.13;2.03;;;;;;;13.88;100.00;98210.16;4174919;28;20311;-72
2023/08/08 07:08:21;;;;;;;3.65;1.95;;;;;;;13.91;100.00;98224.06;4174935;28;20515;-72
2023/08/08 07:10:22;;;;;;;2.40;1.90;;;;;;;13.98;100.00;98215.69;4174568;28;20052;-72
2023/08/08 07:12:22;;;;;;;3.53;2.38;;;;;;;14.00;100.00;98220.84;4175282;28;20103;-73
2023/08/08 07:14:22;;;;;;;4.22;2.30;;;;;;;14.12;100.00;98212.00;4173678;28;20047;-72
2023/08/08 07:16:22;;;;;;;4.07;2.35;;;;;;;14.17;100.00;98216.34;4174537;28;20308;-72
2023/08/08 07:18:23;;;;;;;3.55;2.38;;;;;;;14.26;100.00;98213.91;4174876;28;20288;-72
2023/08/08 07:20:24;;;;;;;3.22;2.65;;;;;;;14.34;100.00;98212.66;4174242;28;20044;-73
2023/08/08 07:22:24;;;;;;;4.78;2.40;;;;;;;14.42;100.00;98224.53;4173662;28;20136;-73
2023/08/08 07:24:28;;;;;;;3.22;2.05;;;;;;;14.44;100.00;98214.53;4173850;28;20053;-72
2023/08/08 07:26:28;;;;;;;3.33;2.17;;;;;;;14.49;100.00;98218.94;4174649;28;20684;-72
2023/08/08 07:28:29;;;;;;;3.05;2.10;;;;;;;14.49;100.00;98216.94;4173227;28;20059;-72
2023/08/08 07:30:29;;;;;;;4.03;2.35;;;;;;;14.52;100.00;98216.09;4173983;28;20419;-73
2023/08/08 07:32:29;;;;;;;3.58;2.22;;;;;;;14.49;100.00;98216.94;4173748;28;20124;-72
2023/08/08 07:34:30;;;;;;;2.55;1.90;;;;;;;14.48;100.00;98228.44;4174121;28;20045;-73
2023/08/08 07:36:30;;;;;;;4.28;1.83;;;;;;;14.45;100.00;98226.47;4174267;28;20061;-73
2023/08/08 07:38:33;;;;;;;2.55;1.73;;;;;;;14.45;100.00;98223.69;4174126;28;20230;-73
2023/08/08 07:40:33;;;;;;;5.13;2.08;;;;;;;14.59;100.00;98223.59;4174287;28;20555;-72
2023/08/08 07:42:33;;;;;;;2.78;1.85;;;;;;;14.64;100.00;98230.72;4173060;28;20060;-73
2023/08/08 07:44:35;;;;;;;4.22;1.70;;;;;;;14.69;100.00;98221.94;4173468;28;20071;-73
2023/08/08 07:46:35;;;;;;;2.90;2.00;;;;;;;14.76;100.00;98225.44;4174040;28;20128;-72
2023/08/08 07:48:35;;;;;;;5.50;2.10;;;;;;;14.84;100.00;98224.16;4174069;28;20073;-72
2023/08/08 07:50:36;;;;;;;4.88;2.00;;;;;;;14.96;100.00;98230.41;4174052;28;20393;-73
2023/08/08 07:52:37;;;;;;;3.88;1.60;;;;;;;15.05;100.00;98227.94;4173233;28;20037;-73
2023/08/08 07:54:37;;;;;;;5.50;2.17;;;;;;;15.15;100.00;98219.47;4174461;28;20336;-73
2023/08/08 07:56:37;;;;;;;3.30;1.60;;;;;;;15.27;100.00;98220.13;4173371;28;20471;-73
2023/08/08 07:58:37;;;;;;;3.92;1.95;;;;;;;15.35;100.00;98225.22;4173644;28;20489;-72
2023/08/08 08:00:38;;;;;;;3.42;1.92;;;;;;;15.57;99.41;98222.19;4174269;28;20045;-73
2023/08/08 08:02:40;;;;;;;3.78;1.73;;;;;;;15.73;99.48;98230.78;4172416;28;20498;-73
2023/08/08 08:04:40;;;;;;;3.23;1.57;;;;;;;15.83;97.71;98221.47;4174031;28;20314;-73
2023/08/08 08:06:40;;;;;;;2.67;1.98;;;;;;;15.94;98.21;98219.31;4172850;28;20103;-72
2023/08/08 08:08:41;;;;;;;2.83;1.58;;;;;;;15.95;98.87;98209.72;4173362;28;20491;-73
2023/08/08 08:10:41;;;;;;;2.55;1.83;;;;;;;15.91;97.45;98206.22;4173791;28;20220;-73
2023/08/08 08:12:42;;;;;;;2.60;1.73;;;;;;;15.86;98.41;98217.81;4172327;28;20049;-73
2023/08/08 08:14:43;;;;;;;2.42;1.80;;;;;;;15.79;96.03;98205.97;4173639;28;20037;-73
2023/08/08 08:16:45;;;;;;;2.40;1.90;;;;;;;15.73;98.10;98203.66;4172348;28;20182;-73
2023/08/08 08:18:45;;;;;;;4.13;2.15;;;;;;;15.73;98.82;98208.47;4173406;28;20647;-73
2023/08/08 08:20:47;;;;;;;3.53;1.70;;;;;;;15.67;100.00;98205.34;4173203;28;20115;-73
2023/08/08 08:22:47;;;;;;;3.30;1.98;;;;;;;15.68;99.20;98203.34;4173055;28;20194;-73
2023/08/08 08:24:47;;;;;;;3.83;2.15;;;;;;;15.62;99.31;98202.22;4173058;28;20072;-73
2023/08/08 08:26:47;;;;;;;2.38;1.45;;;;;;;15.57;98.19;98197.88;4172610;28;20543;-73
2023/08/08 08:28:48;;;;;;;3.17;1.48;;;;;;;15.49;98.32;98188.03;4174061;28;20528;-72
2023/08/08 08:30:49;;;;;;;4.18;1.60;;;;;;;15.48;98.64;98191.22;4173087;28;20045;-73
2023/08/08 08:32:49;;;;;;;2.78;1.65;;;;;;;15.51;95.77;98196.75;4172603;28;20045;-73
2023/08/08 08:34:50;;;;;;;3.78;1.80;;;;;;;15.54;96.93;98189.53;4173653;28;20411;-73
2023/08/08 08:36:50;;;;;;;6.05;1.95;;;;;;;15.54;97.65;98184.75;4172906;28;20503;-73
2023/08/08 08:38:50;;;;;;;3.80;2.03;;;;;;;15.62;97.62;98191.84;4173330;28;20076;-73
2023/08/08 08:40:53;;;;;;;3.03;1.73;;;;;;;15.66;96.37;98187.03;4172633;28;20175;-73
2023/08/08 08:42:54;;;;;;;4.85;2.05;;;;;;;15.73;97.59;98191.72;4172505;28;20103;-73
2023/08/08 08:44:58;;;;;;;4.75;2.00;;;;;;;15.79;95.85;98173.28;4172695;28;20049;-73
2023/08/08 08:47:03;;;;;;;3.08;2.50;;;;;;;15.88;97.46;98181.91;4172190;28;20052;-72
2023/08/08 08:49:07;;;;;;;6.20;2.13;;;;;;;15.91;96.46;98177.53;4172590;28;20049;-73
2023/08/08 08:51:08;;;;;;;4.55;2.10;;;;;;;15.95;96.79;98186.63;4171910;28;20079;-73
2023/08/08 08:53:10;;;;;;;3.67;1.67;;;;;;;15.88;96.05;98179.13;4172599;28;20564;-73
2023/08/08 08:55:10;;;;;;;3.83;1.80;;;;;;;15.97;95.57;98175.81;4173212;28;20408;-73
2023/08/08 08:57:11;;;;;;;2.90;2.22;;;;;;;16.01;96.43;98180.16;4172121;28;20792;-72
2023/08/08 08:59:12;;;;;;;2.65;1.70;;;;;;;16.05;93.68;98177.28;4172807;28;20253;-73
2023/08/08 09:01:14;;;;;;;5.07;2.13;;;;;;;16.21;94.66;98182.22;4173291;28;20485;-73
2023/08/08 09:03:15;;;;;;;7.97;2.10;;;;;;;16.35;93.61;98172.84;4172032;28;20127;-73
2023/08/08 09:05:21;;;;;;;3.08;1.55;;;;;;;16.47;92.26;98164.66;4172839;28;20124;-73
2023/08/08 09:07:26;;;;;;;4.35;2.10;;;;;;;16.59;93.80;98171.63;4172816;28;20064;-73
2023/08/08 09:09:31;;;;;;;2.83;1.65;;;;;;;16.72;94.10;98169.84;4173107;28;20056;-73
2023/08/08 09:11:31;;;;;;;2.03;1.67;;;;;;;16.79;92.68;98166.09;4172242;28;20657;-73
2023/08/08 09:13:39;;;;;;;2.55;1.50;;;;;;;16.87;90.45;98166.78;4172412;28;20104;-73
2023/08/08 09:15:40;;;;;;;3.03;1.67;;;;;;;16.91;89.61;98173.09;4172817;28;20086;-73
2023/08/08 09:17:45;;;;;;;4.35;1.80;;;;;;;16.99;89.58;98169.75;4172743;28;20049;-73
2023/08/08 09:19:46;;;;;;;2.40;1.65;;;;;;;17.09;89.32;98157.56;4172308;28;20511;-73
2023/08/08 09:21:47;;;;;;;5.20;2.00;;;;;;;17.12;89.12;98158.69;4172882;28;20044;-73
2023/08/08 09:23:47;;;;;;;3.78;1.70;;;;;;;17.15;88.41;98163.44;4171809;28;20217;-73